Time;durP1;ratioP1;P1;durP2;ratioP2;P2;SDS_P1;SDS_P2;PMS_P1;PMS_P2;Temp;Humidity;BMP_temperature;BMP_pressure;BME280_temperature;BME280_humidity;BME280_pressure;Samples;Min_cycle;Max_cycle;Signal;HPM_P1;HPM_P2
2023/02/04 00:00:54;;;;;;;35.08;14.73;;;;;;;;;;5033596;28;20025;-65
2023/02/04 00:03:20;;;;;;;33.40;15.15;;;;;;;;;;5050093;28;20666;-66
2023/02/04 00:05:46;;;;;;;39.13;16.73;;;;;;;;;;5033686;28;20032;-65
2023/02/04 00:08:12;;;;;;;33.50;15.27;;;;;;;;;;5033546;28;20119;-64
2023/02/04 00:10:41;;;;;;;31.05;14.13;;;;;;;;;;5032981;28;20029;-64
2023/02/04 00:13:08;;;;;;;35.38;15.57;;;;;;;;;;5032471;28;20028;-64
2023/02/04 00:15:34;;;;;;;35.70;15.23;;;;;;;;;;5033162;28;20504;-63
2023/02/04 00:18:00;;;;;;;36.75;16.42;;;;;;;;;;5051034;28;20123;-64
2023/02/04 00:20:26;;;;;;;45.72;16.00;;;;;;;;;;5053225;28;20040;-66
2023/02/04 00:22:52;;;;;;;32.30;14.63;;;;;;;;;;5033874;28;20025;-66
2023/02/04 00:25:18;;;;;;;47.20;17.25;;;;;;;;;;5033020;28;20511;-66
2023/02/04 00:27:44;;;;;;;33.38;15.90;;;;;;;;;;5051432;28;20056;-65
2023/02/04 00:30:10;;;;;;;34.47;15.45;;;;;;;;;;5052112;28;20108;-67
2023/02/04 00:32:36;;;;;;;33.38;14.30;;;;;;;;;;5052078;28;20033;-66
2023/02/04 00:35:03;;;;;;;32.53;13.57;;;;;;;;;;5051308;28;20033;-66
2023/02/04 00:37:29;;;;;;;40.65;15.68;;;;;;;;;;5052640;28;20100;-66
2023/02/04 00:39:55;;;;;;;36.88;15.15;;;;;;;;;;5054139;28;20025;-66
2023/02/04 00:42:21;;;;;;;36.20;15.38;;;;;;;;;;5053618;28;20535;-66
2023/02/04 00:44:47;;;;;;;29.52;13.40;;;;;;;;;;5052958;28;20033;-65
2023/02/04 00:47:13;;;;;;;38.17;15.43;;;;;;;;;;5053722;28;20078;-65
2023/02/04 00:49:39;;;;;;;38.83;14.63;;;;;;;;;;5053677;28;20041;-66
2023/02/04 00:52:05;;;;;;;30.83;13.90;;;;;;;;;;5053677;28;20031;-66
2023/02/04 00:54:32;;;;;;;35.42;16.45;;;;;;;;;;5052456;28;20021;-66
2023/02/04 00:56:58;;;;;;;37.85;13.95;;;;;;;;;;5035732;28;20083;-65
2023/02/04 00:59:24;;;;;;;27.90;13.93;;;;;;;;;;5035598;28;20112;-64
2023/02/04 01:01:50;;;;;;;31.38;16.38;;;;;;;;;;5035642;28;20013;-64
2023/02/04 01:04:16;;;;;;;31.95;13.15;;;;;;;;;;5052394;28;20040;-65
2023/02/04 01:06:42;;;;;;;52.63;13.63;;;;;;;;;;5035817;28;20036;-65
2023/02/04 01:09:09;;;;;;;27.20;14.50;;;;;;;;;;5036313;28;20029;-66
2023/02/04 01:11:35;;;;;;;31.25;13.57;;;;;;;;;;5036113;28;20175;-66
2023/02/04 01:14:01;;;;;;;37.70;15.30;;;;;;;;;;5053046;28;20029;-66
2023/02/04 01:16:27;;;;;;;29.98;13.63;;;;;;;;;;5035741;28;20032;-66
2023/02/04 01:18:54;;;;;;;34.42;14.35;;;;;;;;;;5053553;28;20028;-66
2023/02/04 01:21:21;;;;;;;31.75;14.27;;;;;;;;;;5054021;28;20059;-66
2023/02/04 01:23:48;;;;;;;32.70;14.50;;;;;;;;;;5052808;28;20016;-66
2023/02/04 01:26:15;;;;;;;35.50;15.00;;;;;;;;;;5035815;28;20028;-64
2023/02/04 01:28:40;;;;;;;46.95;16.30;;;;;;;;;;5035786;28;20051;-65
2023/02/04 01:31:06;;;;;;;36.25;14.95;;;;;;;;;;5053153;28;20029;-65
2023/02/04 01:33:32;;;;;;;34.30;14.23;;;;;;;;;;5052392;28;20028;-66
2023/02/04 01:35:58;;;;;;;32.25;15.00;;;;;;;;;;5052147;28;20439;-69
2023/02/04 01:38:24;;;;;;;33.92;15.82;;;;;;;;;;5035409;28;20485;-66
2023/02/04 01:40:51;;;;;;;35.20;14.45;;;;;;;;;;5052759;28;20112;-67
2023/02/04 01:43:17;;;;;;;30.33;14.73;;;;;;;;;;5033876;28;20021;-66
2023/02/04 01:45:44;;;;;;;34.05;13.32;;;;;;;;;;5052568;28;20039;-66
2023/02/04 01:48:11;;;;;;;29.92;14.27;;;;;;;;;;5034471;28;20033;-65
2023/02/04 01:50:37;;;;;;;37.65;15.02;;;;;;;;;;5052426;28;20127;-66
2023/02/04 01:53:04;;;;;;;39.08;15.55;;;;;;;;;;5051615;28;20017;-66
2023/02/04 01:55:32;;;;;;;35.05;15.30;;;;;;;;;;5034375;28;20025;-66
2023/02/04 01:57:58;;;;;;;33.47;13.90;;;;;;;;;;5052388;28;20071;-66
2023/02/04 02:00:31;;;;;;;35.85;13.63;;;;;;;;;;5052388;28;20121;-66
2023/02/04 02:02:58;;;;;;;39.38;15.13;;;;;;;;;;5034017;28;20021;-66
2023/02/04 02:05:26;;;;;;;38.67;14.45;;;;;;;;;;5033491;28;20027;-66
2023/02/04 02:07:54;;;;;;;35.97;15.95;;;;;;;;;;5052086;28;20031;-65
2023/02/04 02:10:21;;;;;;;32.15;13.73;;;;;;;;;;5034291;28;20478;-65
2023/02/04 02:12:47;;;;;;;35.58;15.35;;;;;;;;;;5052109;28;20124;-65
2023/02/04 02:15:14;;;;;;;38.17;16.83;;;;;;;;;;5033581;28;20107;-65
2023/02/04 02:17:41;;;;;;;27.13;13.32;;;;;;;;;;5051840;28;20029;-64
2023/02/04 02:20:09;;;;;;;38.35;14.20;;;;;;;;;;5051826;28;20028;-65
2023/02/04 02:22:39;;;;;;;34.25;15.20;;;;;;;;;;5052198;28;20093;-66
2023/02/04 02:25:09;;;;;;;29.40;13.98;;;;;;;;;;5051170;28;20029;-65
2023/02/04 02:27:35;;;;;;;29.98;13.55;;;;;;;;;;5051825;28;20017;-65
2023/02/04 02:30:01;;;;;;;37.78;15.05;;;;;;;;;;5033943;28;20025;-65
2023/02/04 02:32:27;;;;;;;33.15;14.23;;;;;;;;;;5033914;28;20032;-65
2023/02/04 02:34:53;;;;;;;30.58;12.73;;;;;;;;;;5032883;28;20057;-65
2023/02/04 02:37:19;;;;;;;31.42;13.57;;;;;;;;;;5033821;28;20063;-65
2023/02/04 02:39:45;;;;;;;30.17;12.25;;;;;;;;;;5033759;28;20037;-68
2023/02/04 02:42:16;;;;;;;37.08;15.93;;;;;;;;;;5051612;28;20540;-65
2023/02/04 02:44:43;;;;;;;37.05;14.05;;;;;;;;;;5032877;28;20025;-64
2023/02/04 02:47:16;;;;;;;30.98;13.55;;;;;;;;;;5035610;28;20024;-64
2023/02/04 02:49:42;;;;;;;35.58;16.13;;;;;;;;;;5037876;28;20397;-65
2023/02/04 02:52:12;;;;;;;34.50;13.98;;;;;;;;;;5055728;28;20028;-65
2023/02/04 02:54:39;;;;;;;37.95;13.50;;;;;;;;;;5036955;28;20032;-66
2023/02/04 02:57:10;;;;;;;31.77;13.85;;;;;;;;;;5055571;28;20112;-66
2023/02/04 02:59:36;;;;;;;32.95;13.95;;;;;;;;;;5037728;28;20029;-66
2023/02/04 03:02:04;;;;;;;32.38;13.90;;;;;;;;;;5037473;28;20029;-66
2023/02/04 03:04:32;;;;;;;34.65;12.82;;;;;;;;;;5033991;28;20095;-65
2023/02/04 03:06:59;;;;;;;32.72;14.25;;;;;;;;;;5034616;28;20026;-65
2023/02/04 03:09:27;;;;;;;33.38;15.85;;;;;;;;;;5035367;28;20083;-65
2023/02/04 03:11:53;;;;;;;32.17;14.50;;;;;;;;;;5034301;28;20057;-65
2023/02/04 03:14:19;;;;;;;40.40;17.65;;;;;;;;;;5033329;28;20029;-66
2023/02/04 03:16:45;;;;;;;31.15;15.20;;;;;;;;;;5034233;28;20072;-65
2023/02/04 03:19:12;;;;;;;35.47;15.68;;;;;;;;;;5034036;28;20393;-66
2023/02/04 03:21:38;;;;;;;38.90;14.80;;;;;;;;;;5035287;28;20466;-66
2023/02/04 03:24:04;;;;;;;36.72;14.27;;;;;;;;;;5033020;28;20028;-65
2023/02/04 03:26:30;;;;;;;35.42;13.80;;;;;;;;;;5033818;28;20028;-65
2023/02/04 03:28:56;;;;;;;35.97;13.75;;;;;;;;;;5033812;28;20025;-65
2023/02/04 03:31:22;;;;;;;35.97;14.13;;;;;;;;;;5034898;28;20033;-65
2023/02/04 03:33:48;;;;;;;38.03;15.55;;;;;;;;;;5034991;28;20044;-65
2023/02/04 03:36:14;;;;;;;30.45;13.23;;;;;;;;;;5046376;28;20017;-66
2023/02/04 03:38:40;;;;;;;32.35;13.52;;;;;;;;;;5036584;28;20025;-65
2023/02/04 03:41:07;;;;;;;36.00;14.40;;;;;;;;;;5046282;28;20020;-66
2023/02/04 03:43:33;;;;;;;41.75;14.32;;;;;;;;;;5053952;28;20116;-65
2023/02/04 03:45:59;;;;;;;33.33;14.10;;;;;;;;;;5054620;28;20052;-65
2023/02/04 03:48:25;;;;;;;35.95;13.85;;;;;;;;;;5036523;28;20032;-64
2023/02/04 03:50:51;;;;;;;32.00;14.48;;;;;;;;;;5054583;28;20032;-65
2023/02/04 03:53:17;;;;;;;38.05;14.50;;;;;;;;;;5053542;28;20068;-65
2023/02/04 03:55:43;;;;;;;36.85;13.68;;;;;;;;;;5036656;28;20111;-67
2023/02/04 03:58:09;;;;;;;32.78;13.43;;;;;;;;;;5044956;28;20474;-66
2023/02/04 04:00:35;;;;;;;35.17;15.48;;;;;;;;;;5054284;28;20032;-66
2023/02/04 04:03:01;;;;;;;32.65;13.65;;;;;;;;;;5053952;28;20025;-67
2023/02/04 04:05:27;;;;;;;40.28;13.93;;;;;;;;;;5036437;28;20551;-65
2023/02/04 04:07:53;;;;;;;30.17;14.52;;;;;;;;;;5054260;28;20079;-66
2023/02/04 04:10:19;;;;;;;37.15;14.05;;;;;;;;;;5028085;28;20052;-65
2023/02/04 04:12:45;;;;;;;31.17;13.10;;;;;;;;;;5036293;28;20124;-66
2023/02/04 04:15:11;;;;;;;32.75;14.50;;;;;;;;;;5053315;28;20021;-63
2023/02/04 04:17:37;;;;;;;32.08;13.45;;;;;;;;;;5054269;28;20048;-66
2023/02/04 04:20:03;;;;;;;31.98;13.40;;;;;;;;;;5054031;28;20401;-65
2023/02/04 04:22:29;;;;;;;52.05;15.27;;;;;;;;;;5053891;28;20017;-65
2023/02/04 04:24:55;;;;;;;38.50;14.35;;;;;;;;;;5053299;28;20021;-65
2023/02/04 04:27:21;;;;;;;48.85;16.98;;;;;;;;;;5036229;28;20021;-66
2023/02/04 04:29:47;;;;;;;36.05;15.38;;;;;;;;;;5035815;28;20469;-66
2023/02/04 04:32:13;;;;;;;31.55;13.48;;;;;;;;;;5035928;28;20035;-67
2023/02/04 04:34:39;;;;;;;33.85;14.40;;;;;;;;;;5034731;28;20056;-66
2023/02/04 04:37:05;;;;;;;41.70;14.65;;;;;;;;;;5053636;28;20021;-67
2023/02/04 04:39:31;;;;;;;39.25;13.60;;;;;;;;;;5053414;28;20033;-64
2023/02/04 04:41:57;;;;;;;34.08;13.68;;;;;;;;;;5053709;28;20246;-65
2023/02/04 04:44:23;;;;;;;38.35;14.20;;;;;;;;;;5052721;28;20035;-66
2023/02/04 04:46:49;;;;;;;40.03;16.50;;;;;;;;;;5046656;28;20026;-65
2023/02/04 04:49:15;;;;;;;32.30;13.10;;;;;;;;;;5046669;28;20029;-66
2023/02/04 04:51:41;;;;;;;31.60;13.25;;;;;;;;;;5034580;28;20025;-64
2023/02/04 04:54:07;;;;;;;39.92;16.20;;;;;;;;;;5035115;28;20470;-66
2023/02/04 04:56:33;;;;;;;33.50;16.63;;;;;;;;;;5026745;28;20052;-65
2023/02/04 04:58:59;;;;;;;42.00;15.60;;;;;;;;;;5041632;28;20064;-66
2023/02/04 05:01:25;;;;;;;30.50;14.80;;;;;;;;;;5033502;28;20482;-65
2023/02/04 05:03:51;;;;;;;35.60;13.68;;;;;;;;;;5032638;28;20021;-66
2023/02/04 05:06:24;;;;;;;30.92;13.45;;;;;;;;;;5015699;28;20074;-66
2023/02/04 05:08:49;;;;;;;34.03;14.20;;;;;;;;;;5015791;28;20052;-66
2023/02/04 05:11:15;;;;;;;37.20;14.02;;;;;;;;;;5015493;28;20056;-66
2023/02/04 05:13:41;;;;;;;37.67;14.20;;;;;;;;;;5032585;28;20029;-66
2023/02/04 05:16:10;;;;;;;36.85;13.65;;;;;;;;;;5033243;28;20029;-66
2023/02/04 05:18:36;;;;;;;37.58;17.25;;;;;;;;;;5033093;28;20061;-66
2023/02/04 05:21:02;;;;;;;39.42;14.85;;;;;;;;;;5015500;28;20045;-65
2023/02/04 05:23:28;;;;;;;34.97;15.55;;;;;;;;;;5032595;28;20102;-66
2023/02/04 05:25:54;;;;;;;36.72;14.02;;;;;;;;;;5049628;28;20500;-66
2023/02/04 05:28:21;;;;;;;42.78;18.52;;;;;;;;;;5015227;28;20548;-65
2023/02/04 05:30:47;;;;;;;29.58;14.25;;;;;;;;;;5015333;28;20025;-66
2023/02/04 05:33:13;;;;;;;37.80;14.65;;;;;;;;;;5014374;28;20060;-66
2023/02/04 05:35:39;;;;;;;30.40;13.75;;;;;;;;;;5033087;28;20057;-67
2023/02/04 05:38:04;;;;;;;31.35;14.90;;;;;;;;;;5036121;28;20017;-66
2023/02/04 05:40:30;;;;;;;41.90;15.57;;;;;;;;;;5044822;28;20027;-66
2023/02/04 05:42:56;;;;;;;39.05;14.32;;;;;;;;;;5052056;28;20014;-63
2023/02/04 05:45:22;;;;;;;38.17;15.75;;;;;;;;;;5034216;28;20106;-65
2023/02/04 05:47:48;;;;;;;37.13;15.07;;;;;;;;;;5052510;28;20059;-66
2023/02/04 05:50:14;;;;;;;38.75;16.67;;;;;;;;;;5052655;28;20033;-65
2023/02/04 05:52:40;;;;;;;33.20;14.70;;;;;;;;;;5052486;28;20029;-66
2023/02/04 05:55:07;;;;;;;32.85;15.00;;;;;;;;;;5033851;28;20120;-66
2023/02/04 05:57:33;;;;;;;31.60;14.57;;;;;;;;;;5052369;28;20028;-66
2023/02/04 05:59:59;;;;;;;33.13;16.05;;;;;;;;;;5052534;28;20381;-66
2023/02/04 06:02:25;;;;;;;39.75;14.57;;;;;;;;;;5052412;28;20049;-65
2023/02/04 06:04:51;;;;;;;29.05;15.10;;;;;;;;;;5051562;28;20017;-66
2023/02/04 06:07:17;;;;;;;38.95;16.23;;;;;;;;;;5034445;28;20055;-66
2023/02/04 06:09:43;;;;;;;33.92;15.43;;;;;;;;;;5034530;28;20114;-66
2023/02/04 06:12:09;;;;;;;46.45;17.92;;;;;;;;;;5052387;28;20025;-66
2023/02/04 06:14:35;;;;;;;33.40;15.50;;;;;;;;;;5051287;28;20063;-67
2023/02/04 06:17:01;;;;;;;35.83;15.65;;;;;;;;;;5052357;28;20027;-65
2023/02/04 06:19:27;;;;;;;34.28;15.30;;;;;;;;;;5052181;28;20616;-66
2023/02/04 06:21:53;;;;;;;33.95;15.65;;;;;;;;;;5060736;22;20037;-62
2023/02/04 06:24:19;;;;;;;40.80;16.30;;;;;;;;;;5029702;28;20025;-62
2023/02/04 06:26:45;;;;;;;33.60;16.65;;;;;;;;;;5031418;28;20021;-62
2023/02/04 06:29:11;;;;;;;30.00;14.80;;;;;;;;;;5031637;28;20444;-62
2023/02/04 06:31:37;;;;;;;40.92;16.02;;;;;;;;;;5030341;28;20082;-62
2023/02/04 06:34:04;;;;;;;44.35;16.10;;;;;;;;;;5030863;28;20104;-60
2023/02/04 06:36:31;;;;;;;31.55;15.57;;;;;;;;;;5031779;28;20402;-60
2023/02/04 06:38:57;;;;;;;41.97;14.82;;;;;;;;;;5031699;28;20057;-62
2023/02/04 06:41:23;;;;;;;44.60;16.42;;;;;;;;;;5031455;28;20041;-59
2023/02/04 06:43:49;;;;;;;41.25;14.23;;;;;;;;;;5030897;28;20159;-60
2023/02/04 06:46:15;;;;;;;36.25;15.32;;;;;;;;;;5031558;28;20061;-62
2023/02/04 06:48:41;;;;;;;37.08;14.75;;;;;;;;;;5029030;28;20059;-61
2023/02/04 06:51:07;;;;;;;35.75;14.52;;;;;;;;;;5031275;28;20056;-62
2023/02/04 06:53:33;;;;;;;39.92;15.13;;;;;;;;;;5013032;28;20049;-63
2023/02/04 06:55:59;;;;;;;40.78;17.90;;;;;;;;;;5031121;28;20028;-63
2023/02/04 06:58:25;;;;;;;36.42;15.57;;;;;;;;;;5031252;28;20033;-62
2023/02/04 07:00:51;;;;;;;39.05;16.08;;;;;;;;;;5031427;28;20045;-61
2023/02/04 07:03:17;;;;;;;41.40;16.17;;;;;;;;;;5012650;28;20018;-63
2023/02/04 07:05:43;;;;;;;35.40;15.48;;;;;;;;;;5030983;28;20417;-61
2023/02/04 07:08:09;;;;;;;38.83;18.40;;;;;;;;;;5030674;28;20149;-62
2023/02/04 07:10:35;;;;;;;39.17;16.00;;;;;;;;;;5030424;28;20033;-62
2023/02/04 07:13:01;;;;;;;43.30;17.75;;;;;;;;;;5030846;28;20047;-63
2023/02/04 07:15:27;;;;;;;41.88;16.08;;;;;;;;;;5030935;28;20025;-62
2023/02/04 07:17:53;;;;;;;37.97;16.20;;;;;;;;;;5030655;28;20040;-61
2023/02/04 07:20:19;;;;;;;40.08;15.90;;;;;;;;;;5030986;28;20022;-61
2023/02/04 07:22:45;;;;;;;42.75;17.88;;;;;;;;;;5030955;28;20033;-60
2023/02/04 07:25:13;;;;;;;35.50;15.48;;;;;;;;;;5012674;28;20091;-60
2023/02/04 07:27:39;;;;;;;42.58;16.58;;;;;;;;;;5013678;28;20021;-61
2023/02/04 07:30:06;;;;;;;41.22;16.42;;;;;;;;;;5013335;28;20084;-61
2023/02/04 07:32:32;;;;;;;36.85;14.82;;;;;;;;;;5014000;28;20025;-61
2023/02/04 07:34:59;;;;;;;35.17;15.48;;;;;;;;;;5034128;28;20017;-61
2023/02/04 07:37:25;;;;;;;42.25;16.13;;;;;;;;;;5034698;28;20516;-61
2023/02/04 07:39:51;;;;;;;41.28;16.80;;;;;;;;;;5034383;28;20120;-65
2023/02/04 07:42:17;;;;;;;37.90;15.05;;;;;;;;;;5034357;28;20025;-61
2023/02/04 07:44:43;;;;;;;37.65;15.95;;;;;;;;;;5034031;28;20336;-61
2023/02/04 07:47:09;;;;;;;35.72;15.15;;;;;;;;;;5034646;28;20100;-61
2023/02/04 07:49:34;;;;;;;37.60;15.73;;;;;;;;;;5034537;28;20437;-61
2023/02/04 07:52:00;;;;;;;39.38;15.80;;;;;;;;;;5034098;28;20060;-62
2023/02/04 07:54:26;;;;;;;38.20;15.48;;;;;;;;;;5033467;28;20028;-61
2023/02/04 07:56:52;;;;;;;47.58;16.25;;;;;;;;;;5034203;28;20026;-59
2023/02/04 07:59:18;;;;;;;41.58;16.33;;;;;;;;;;5034160;28;20055;-61
2023/02/04 08:01:46;;;;;;;32.28;15.60;;;;;;;;;;5033940;28;20029;-60
2023/02/04 08:04:12;;;;;;;33.93;15.77;;;;;;;;;;5033546;28;20046;-62
2023/02/04 08:06:38;;;;;;;35.38;16.08;;;;;;;;;;5034193;28;20287;-61
2023/02/04 08:09:04;;;;;;;37.08;17.15;;;;;;;;;;5016325;28;20478;-62
2023/02/04 08:11:30;;;;;;;46.38;18.52;;;;;;;;;;5033840;28;20029;-62
2023/02/04 08:13:56;;;;;;;37.90;16.92;;;;;;;;;;5033262;28;20026;-61
2023/02/04 08:16:22;;;;;;;39.22;18.83;;;;;;;;;;5033930;28;20037;-61
2023/02/04 08:18:48;;;;;;;39.00;16.40;;;;;;;;;;5015866;28;20116;-62
2023/02/04 08:21:14;;;;;;;34.42;15.60;;;;;;;;;;5033526;28;20398;-62
2023/02/04 08:23:40;;;;;;;34.40;12.90;;;;;;;;;;5033115;28;20032;-62
2023/02/04 08:26:09;;;;;;;35.17;14.57;;;;;;;;;;5033611;28;20232;-62
2023/02/04 08:28:34;;;;;;;36.78;18.63;;;;;;;;;;5033759;28;20053;-60
2023/02/04 08:31:00;;;;;;;30.50;13.98;;;;;;;;;;5033282;28;20060;-60
2023/02/04 08:33:26;;;;;;;28.42;14.50;;;;;;;;;;5032634;28;20029;-60
2023/02/04 08:35:52;;;;;;;27.27;12.43;;;;;;;;;;5033372;28;20021;-59
2023/02/04 08:38:18;;;;;;;29.33;12.95;;;;;;;;;;5033496;28;20100;-58
2023/02/04 08:40:44;;;;;;;22.60;12.07;;;;;;;;;;5033249;28;20482;-58
2023/02/04 08:43:10;;;;;;;31.92;15.07;;;;;;;;;;5032832;28;20026;-58
2023/02/04 08:45:36;;;;;;;25.42;11.43;;;;;;;;;;5032653;28;20474;-59
2023/02/04 08:48:02;;;;;;;24.15;10.82;;;;;;;;;;5033271;28;20108;-59
2023/02/04 08:50:29;;;;;;;27.45;11.80;;;;;;;;;;5015301;28;20464;-59
2023/02/04 08:52:56;;;;;;;26.92;10.68;;;;;;;;;;5033094;28;20030;-57
2023/02/04 08:55:22;;;;;;;24.83;10.30;;;;;;;;;;5032520;28;20049;-59
2023/02/04 08:57:48;;;;;;;22.65;10.10;;;;;;;;;;5032921;28;20414;-57
2023/02/04 09:00:14;;;;;;;24.70;10.30;;;;;;;;;;5015053;28;20064;-58
2023/02/04 09:02:40;;;;;;;20.88;9.70;;;;;;;;;;5015173;28;20468;-58
2023/02/04 09:05:06;;;;;;;27.60;10.85;;;;;;;;;;5032058;28;20025;-61
2023/02/04 09:07:32;;;;;;;25.23;9.70;;;;;;;;;;5032991;28;20393;-59
2023/02/04 09:09:58;;;;;;;24.08;10.70;;;;;;;;;;5032703;28;20030;-58
2023/02/04 09:12:24;;;;;;;25.27;9.60;;;;;;;;;;5032501;28;20037;-60
2023/02/04 09:14:50;;;;;;;18.00;9.18;;;;;;;;;;5013965;28;20074;-58
2023/02/04 09:17:16;;;;;;;21.05;9.52;;;;;;;;;;5014870;28;20216;-60
2023/02/04 09:19:43;;;;;;;23.33;9.50;;;;;;;;;;5032464;28;20101;-62
2023/02/04 09:22:09;;;;;;;23.08;10.00;;;;;;;;;;5032419;28;20386;-62
2023/02/04 09:24:35;;;;;;;21.90;9.93;;;;;;;;;;5031795;28;20024;-62
2023/02/04 09:27:01;;;;;;;17.20;9.52;;;;;;;;;;5032436;28;20480;-59
2023/02/04 09:29:27;;;;;;;20.45;8.80;;;;;;;;;;5032441;28;20506;-62
2023/02/04 09:31:53;;;;;;;22.77;8.80;;;;;;;;;;5032325;28;20056;-60
2023/02/04 09:34:19;;;;;;;22.42;10.32;;;;;;;;;;5013991;28;20021;-61
2023/02/04 09:36:45;;;;;;;21.65;10.55;;;;;;;;;;5032653;28;20091;-60
2023/02/04 09:39:11;;;;;;;23.80;10.00;;;;;;;;;;5032138;28;20029;-61
2023/02/04 09:41:38;;;;;;;25.45;9.85;;;;;;;;;;5014710;28;20025;-62
2023/02/04 09:44:07;;;;;;;20.40;9.80;;;;;;;;;;5031666;28;20030;-61
2023/02/04 09:46:33;;;;;;;22.38;9.45;;;;;;;;;;5032299;28;20103;-61
2023/02/04 09:49:00;;;;;;;21.90;9.45;;;;;;;;;;5032248;28;20109;-62
2023/02/04 09:51:28;;;;;;;22.67;9.85;;;;;;;;;;5014475;28;20045;-62
2023/02/04 09:53:55;;;;;;;25.05;10.63;;;;;;;;;;5031398;28;20057;-60
2023/02/04 09:56:22;;;;;;;22.77;10.10;;;;;;;;;;5031173;28;20029;-62
2023/02/04 09:58:48;;;;;;;20.17;10.10;;;;;;;;;;5032009;28;20037;-62
2023/02/04 10:01:15;;;;;;;27.60;12.13;;;;;;;;;;5014237;28;20017;-59
2023/02/04 10:03:45;;;;;;;21.42;10.02;;;;;;;;;;5031124;28;20041;-63
2023/02/04 10:06:12;;;;;;;20.25;9.80;;;;;;;;;;5031826;28;20014;-60
2023/02/04 10:08:39;;;;;;;21.55;9.70;;;;;;;;;;5031607;28;20022;-61
2023/02/04 10:11:08;;;;;;;23.50;9.80;;;;;;;;;;5031714;28;20036;-63
2023/02/04 10:13:33;;;;;;;;;;;;;;;;;;5031377;28;20017;-61
2023/02/04 10:16:00;;;;;;;22.27;8.93;;;;;;;;;;5030315;28;20067;-61
2023/02/04 10:18:31;;;;;;;19.73;9.95;;;;;;;;;;5013632;28;20021;-60
2023/02/04 10:21:08;;;;;;;19.30;9.30;;;;;;;;;;5031353;28;20025;-63
2023/02/04 10:23:34;;;;;;;18.63;9.82;;;;;;;;;;5032855;28;20125;-63
2023/02/04 10:26:00;;;;;;;20.83;10.77;;;;;;;;;;5034715;28;20049;-63
2023/02/04 10:28:33;;;;;;;20.55;9.40;;;;;;;;;;5032585;28;20100;-63
2023/02/04 10:30:59;;;;;;;23.15;10.63;;;;;;;;;;5031386;28;20013;-64
2023/02/04 10:33:25;;;;;;;22.05;10.50;;;;;;;;;;5030810;28;20017;-61
2023/02/04 10:35:53;;;;;;;24.65;10.57;;;;;;;;;;5031537;28;20026;-60
2023/02/04 10:38:19;;;;;;;22.88;11.27;;;;;;;;;;5031381;28;20021;-62
2023/02/04 10:40:46;;;;;;;26.50;11.18;;;;;;;;;;5031238;28;20100;-63
2023/02/04 10:43:21;;;;;;;23.30;10.55;;;;;;;;;;5030683;28;20105;-62
2023/02/04 10:45:48;;;;;;;25.65;11.95;;;;;;;;;;5031269;28;20017;-61
2023/02/04 10:48:17;;;;;;;29.35;12.77;;;;;;;;;;5030216;28;20052;-62
2023/02/04 10:50:43;;;;;;;29.15;14.45;;;;;;;;;;5031289;28;20021;-62
2023/02/04 10:55:56;;;;;;;35.13;16.98;;;;;;;;;;5031247;28;20037;-61
2023/02/04 10:58:30;;;;;;;24.08;11.15;;;;;;;;;;5029384;28;20030;-59
2023/02/04 11:00:56;;;;;;;20.52;10.35;;;;;;;;;;5031239;28;20028;-60
2023/02/04 11:03:24;;;;;;;27.15;11.13;;;;;;;;;;5030196;28;20056;-61
2023/02/04 11:05:51;;;;;;;22.75;10.68;;;;;;;;;;5031151;28;20053;-61
2023/02/04 11:08:21;;;;;;;27.58;12.75;;;;;;;;;;5033191;28;20048;-61
2023/02/04 11:10:49;;;;;;;23.77;10.98;;;;;;;;;;5035002;28;20037;-62
2023/02/04 11:13:26;;;;;;;27.00;11.48;;;;;;;;;;5015759;28;20148;-62
2023/02/04 11:16:07;;;;;;;28.00;11.52;;;;;;;;;;5025583;28;20435;-63
2023/02/04 11:18:42;;;;;;;24.17;11.27;;;;;;;;;;5030784;28;20402;-60
2023/02/04 11:21:13;;;;;;;22.77;10.63;;;;;;;;;;5020026;28;20033;-62
2023/02/04 11:23:39;;;;;;;24.65;11.05;;;;;;;;;;5011148;28;20034;-62
2023/02/04 11:26:07;;;;;;;22.48;10.18;;;;;;;;;;5017285;28;20386;-62
2023/02/04 11:28:47;;;;;;;23.13;10.50;;;;;;;;;;5027203;28;20025;-64
2023/02/04 11:31:19;;;;;;;23.90;10.95;;;;;;;;;;5026626;28;20022;-62
2023/02/04 11:33:46;;;;;;;24.63;11.38;;;;;;;;;;5015278;28;20028;-63
2023/02/04 11:36:13;;;;;;;25.80;11.63;;;;;;;;;;5034459;28;20018;-64
2023/02/04 11:38:43;;;;;;;25.02;11.35;;;;;;;;;;5034245;28;20049;-62
2023/02/04 11:41:14;;;;;;;22.58;10.73;;;;;;;;;;5034685;28;20021;-60
2023/02/04 11:43:40;;;;;;;26.23;11.05;;;;;;;;;;5034349;28;20024;-62
2023/02/04 11:46:15;;;;;;;22.13;11.05;;;;;;;;;;5034604;28;20377;-60
2023/02/04 11:48:42;;;;;;;26.65;10.68;;;;;;;;;;5034424;28;20025;-61
2023/02/04 11:51:12;;;;;;;21.40;10.57;;;;;;;;;;5016613;28;20025;-63
2023/02/04 11:53:38;;;;;;;24.00;11.38;;;;;;;;;;5032904;28;20025;-60
2023/02/04 11:56:04;;;;;;;24.73;10.73;;;;;;;;;;5033832;28;20735;-62
2023/02/04 11:58:30;;;;;;;24.17;10.98;;;;;;;;;;5033740;28;20433;-62
2023/02/04 12:00:56;;;;;;;25.48;10.60;;;;;;;;;;5034028;28;20032;-60
2023/02/04 12:03:25;;;;;;;25.15;11.85;;;;;;;;;;5027786;28;20030;-64
2023/02/04 12:05:55;;;;;;;145.07;96.20;;;;;;;;;;5015235;28;20043;-62
2023/02/04 12:08:21;;;;;;;23.00;12.02;;;;;;;;;;5015436;28;20014;-59
2023/02/04 12:10:48;;;;;;;62.17;38.85;;;;;;;;;;5018063;28;20045;-62
2023/02/04 12:13:16;;;;;;;37.50;17.92;;;;;;;;;;5016160;28;20409;-62
2023/02/04 12:15:51;;;;;;;29.35;15.73;;;;;;;;;;5017288;28;20033;-64
2023/02/04 12:18:17;;;;;;;44.00;24.73;;;;;;;;;;5003630;28;20061;-63
2023/02/04 12:20:46;;;;;;;31.05;11.77;;;;;;;;;;5026974;28;20030;-62
2023/02/04 12:23:12;;;;;;;23.63;11.07;;;;;;;;;;5025126;28;20116;-63
2023/02/04 12:25:38;;;;;;;22.05;9.95;;;;;;;;;;5021816;28;20036;-64
2023/02/04 12:28:04;;;;;;;23.92;10.02;;;;;;;;;;5032297;28;20030;-64
2023/02/04 12:30:30;;;;;;;22.05;10.75;;;;;;;;;;5032144;28;20394;-60
2023/02/04 12:32:56;;;;;;;23.45;10.30;;;;;;;;;;5029205;28;20037;-61
2023/02/04 12:35:22;;;;;;;24.55;11.23;;;;;;;;;;5026467;28;20052;-61
2023/02/04 12:37:48;;;;;;;24.15;10.35;;;;;;;;;;5030598;28;20021;-61
2023/02/04 12:40:15;;;;;;;23.77;11.13;;;;;;;;;;5031884;28;20026;-63
2023/02/04 12:42:42;;;;;;;28.80;11.13;;;;;;;;;;5032294;28;20057;-64
2023/02/04 12:45:08;;;;;;;21.25;9.93;;;;;;;;;;5012754;28;20110;-64
2023/02/04 12:47:34;;;;;;;23.02;10.32;;;;;;;;;;5031494;28;20533;-62
2023/02/04 12:50:00;;;;;;;23.23;10.93;;;;;;;;;;5031475;28;20112;-62
2023/02/04 12:52:26;;;;;;;21.13;10.68;;;;;;;;;;5031633;28;20029;-62
2023/02/04 12:54:52;;;;;;;20.45;10.45;;;;;;;;;;5031047;28;20091;-61
2023/02/04 12:57:18;;;;;;;24.05;10.40;;;;;;;;;;5029643;28;20022;-61
2023/02/04 12:59:48;;;;;;;20.60;11.35;;;;;;;;;;5032142;28;20029;-62
2023/02/04 13:02:14;;;;;;;27.75;10.90;;;;;;;;;;5031324;28;20014;-63
2023/02/04 13:04:40;;;;;;;20.33;9.98;;;;;;;;;;5031345;28;20025;-63
2023/02/04 13:07:07;;;;;;;20.88;9.80;;;;;;;;;;5031642;28;20037;-62
2023/02/04 13:09:34;;;;;;;21.08;9.43;;;;;;;;;;5032056;28;20032;-62
2023/02/04 13:12:00;;;;;;;20.77;10.32;;;;;;;;;;5032450;28;20033;-60
2023/02/04 13:14:26;;;;;;;23.08;11.10;;;;;;;;;;5031160;28;20086;-63
2023/02/04 13:16:52;;;;;;;23.38;9.55;;;;;;;;;;5031518;28;20503;-64
2023/02/04 13:19:18;;;;;;;22.05;9.95;;;;;;;;;;5032072;28;20087;-62
2023/02/04 13:21:44;;;;;;;23.92;9.73;;;;;;;;;;5031918;28;20405;-63
2023/02/04 13:24:10;;;;;;;29.13;10.32;;;;;;;;;;5023758;28;20021;-61
2023/02/04 13:26:36;;;;;;;19.85;9.75;;;;;;;;;;5014098;28;20036;-62
2023/02/04 13:29:02;;;;;;;22.38;9.75;;;;;;;;;;5031727;28;20025;-63
2023/02/04 13:31:28;;;;;;;22.73;9.75;;;;;;;;;;5014134;28;20120;-63
2023/02/04 13:33:54;;;;;;;20.65;9.93;;;;;;;;;;5031095;28;20044;-62
2023/02/04 13:36:20;;;;;;;19.58;9.65;;;;;;;;;;5013452;28;20029;-65
2023/02/04 13:38:46;;;;;;;20.00;9.85;;;;;;;;;;5031103;28;20021;-64
2023/02/04 13:41:12;;;;;;;18.80;10.05;;;;;;;;;;5031596;28;20032;-63
2023/02/04 13:43:38;;;;;;;24.60;9.32;;;;;;;;;;5031233;28;20021;-63
2023/02/04 13:46:05;;;;;;;18.17;9.40;;;;;;;;;;5031671;28;20072;-62
2023/02/04 13:48:31;;;;;;;25.13;9.98;;;;;;;;;;5031123;28;20128;-63
2023/02/04 13:50:57;;;;;;;20.00;9.98;;;;;;;;;;5031283;28;20025;-61
2023/02/04 13:53:25;;;;;;;18.67;9.32;;;;;;;;;;5030726;28;20494;-63
2023/02/04 13:55:51;;;;;;;18.15;9.15;;;;;;;;;;5031191;28;20037;-61
2023/02/04 13:58:17;;;;;;;23.77;9.85;;;;;;;;;;5031065;28;20032;-62
2023/02/04 14:00:43;;;;;;;22.25;10.25;;;;;;;;;;5030896;28;20044;-61
2023/02/04 14:03:09;;;;;;;21.17;9.77;;;;;;;;;;5027213;28;20025;-61
2023/02/04 14:05:35;;;;;;;22.58;9.60;;;;;;;;;;5031242;28;20052;-64
2023/02/04 14:08:01;;;;;;;20.33;9.52;;;;;;;;;;5012847;28;20021;-60
2023/02/04 14:10:27;;;;;;;21.92;10.52;;;;;;;;;;5030518;28;20398;-62
2023/02/04 14:12:53;;;;;;;23.40;10.15;;;;;;;;;;5031273;28;20029;-61
2023/02/04 14:15:19;;;;;;;18.20;9.50;;;;;;;;;;5011374;28;20029;-63
2023/02/04 14:17:45;;;;;;;21.80;9.23;;;;;;;;;;5026757;28;20028;-62